sensor_id;sensor_type;location;lat;lon;timestamp;pressure;altitude;pressure_sealevel;temperature;humidity
24302;BME280;12421;49.732;20.078;2022-10-18T00:02:06;98001.16;;;7.18;85.30
24302;BME280;12421;49.732;20.078;2022-10-18T00:12:10;97996.79;;;7.09;85.68
24302;BME280;12421;49.732;20.078;2022-10-18T00:22:14;97989.61;;;7.07;86.04
24302;BME280;12421;49.732;20.078;2022-10-18T00:32:17;97982.13;;;7.00;85.55
24302;BME280;12421;49.732;20.078;2022-10-18T00:42:32;97979.61;;;6.96;85.48
24302;BME280;12421;49.732;20.078;2022-10-18T00:52:39;97973.17;;;6.88;85.62
24302;BME280;12421;49.732;20.078;2022-10-18T01:02:45;97965.94;;;6.85;86.29
24302;BME280;12421;49.732;20.078;2022-10-18T01:23:14;97948.99;;;6.76;85.17
24302;BME280;12421;49.732;20.078;2022-10-18T01:43:33;97945.38;;;6.52;85.42
24302;BME280;12421;49.732;20.078;2022-10-18T01:53:37;97934.79;;;6.39;85.54
24302;BME280;12421;49.732;20.078;2022-10-18T02:03:44;97928.05;;;6.42;86.33
24302;BME280;12421;49.732;20.078;2022-10-18T02:13:55;97920.13;;;6.39;85.93
24302;BME280;12421;49.732;20.078;2022-10-18T02:24:01;97911.76;;;6.30;85.99
24302;BME280;12421;49.732;20.078;2022-10-18T02:34:28;97911.67;;;6.19;86.36
24302;BME280;12421;49.732;20.078;2022-10-18T02:44:33;97914.36;;;6.14;86.78
24302;BME280;12421;49.732;20.078;2022-10-18T02:54:37;97909.80;;;6.13;86.89
24302;BME280;12421;49.732;20.078;2022-10-18T03:04:41;97914.16;;;6.13;87.65
24302;BME280;12421;49.732;20.078;2022-10-18T03:14:44;97899.59;;;6.08;87.43
24302;BME280;12421;49.732;20.078;2022-10-18T03:24:48;97896.85;;;6.11;88.24
24302;BME280;12421;49.732;20.078;2022-10-18T03:34:52;97895.77;;;6.09;87.87
24302;BME280;12421;49.732;20.078;2022-10-18T03:44:55;97899.04;;;6.07;88.38
24302;BME280;12421;49.732;20.078;2022-10-18T03:54:59;97894.53;;;6.00;88.13
24302;BME280;12421;49.732;20.078;2022-10-18T04:05:03;97888.66;;;5.95;88.13
24302;BME280;12421;49.732;20.078;2022-10-18T04:15:08;97891.77;;;5.94;88.21
24302;BME280;12421;49.732;20.078;2022-10-18T04:25:12;97895.41;;;5.93;88.50
24302;BME280;12421;49.732;20.078;2022-10-18T04:35:15;97890.55;;;5.94;89.46
24302;BME280;12421;49.732;20.078;2022-10-18T04:45:19;97891.48;;;5.97;89.59
24302;BME280;12421;49.732;20.078;2022-10-18T04:55:23;97895.90;;;5.92;88.92
24302;BME280;12421;49.732;20.078;2022-10-18T05:05:26;97889.14;;;5.93;88.98
24302;BME280;12421;49.732;20.078;2022-10-18T05:15:51;97891.39;;;5.92;89.05
24302;BME280;12421;49.732;20.078;2022-10-18T05:26:03;97888.66;;;5.88;88.58
24302;BME280;12421;49.732;20.078;2022-10-18T05:36:08;97887.91;;;5.93;88.96
24302;BME280;12421;49.732;20.078;2022-10-18T05:46:13;97883.61;;;6.03;89.55
24302;BME280;12421;49.732;20.078;2022-10-18T05:56:17;97888.51;;;6.36;89.81
24302;BME280;12421;49.732;20.078;2022-10-18T06:06:21;97885.73;;;6.62;89.98
24302;BME280;12421;49.732;20.078;2022-10-18T06:16:26;97894.60;;;6.87;90.77
24302;BME280;12421;49.732;20.078;2022-10-18T06:26:34;97903.07;;;7.41;92.37
24302;BME280;12421;49.732;20.078;2022-10-18T06:36:38;97900.01;;;8.01;92.69
24302;BME280;12421;49.732;20.078;2022-10-18T06:46:43;97895.38;;;8.56;94.04
24302;BME280;12421;49.732;20.078;2022-10-18T06:56:47;97893.55;;;9.12;94.54
24302;BME280;12421;49.732;20.078;2022-10-18T07:06:53;97889.70;;;9.68;94.25
24302;BME280;12421;49.732;20.078;2022-10-18T07:17:00;97884.50;;;10.26;93.93
24302;BME280;12421;49.732;20.078;2022-10-18T07:27:04;97880.55;;;10.80;92.85
24302;BME280;12421;49.732;20.078;2022-10-18T07:37:08;97878.55;;;11.29;91.11
24302;BME280;12421;49.732;20.078;2022-10-18T07:47:14;97866.66;;;11.73;89.39
24302;BME280;12421;49.732;20.078;2022-10-18T07:57:18;97863.61;;;12.14;87.48
24302;BME280;12421;49.732;20.078;2022-10-18T08:07:22;97851.55;;;12.52;85.66
24302;BME280;12421;49.732;20.078;2022-10-18T08:17:25;97839.23;;;12.86;83.99
24302;BME280;12421;49.732;20.078;2022-10-18T08:27:29;97831.73;;;13.32;82.60
24302;BME280;12421;49.732;20.078;2022-10-18T08:37:34;97830.65;;;13.96;81.38
24302;BME280;12421;49.732;20.078;2022-10-18T08:47:42;97814.39;;;14.62;78.97
24302;BME280;12421;49.732;20.078;2022-10-18T08:57:47;97805.19;;;15.26;77.21
24302;BME280;12421;49.732;20.078;2022-10-18T09:08:12;97799.09;;;15.85;75.89
24302;BME280;12421;49.732;20.078;2022-10-18T09:29:28;97778.33;;;16.85;71.45
24302;BME280;12421;49.732;20.078;2022-10-18T09:39:37;97766.34;;;17.28;69.04
24302;BME280;12421;49.732;20.078;2022-10-18T09:49:45;97754.67;;;17.62;67.53
24302;BME280;12421;49.732;20.078;2022-10-18T09:59:50;97746.56;;;17.94;66.18
24302;BME280;12421;49.732;20.078;2022-10-18T10:09:57;97733.19;;;18.27;64.85
24302;BME280;12421;49.732;20.078;2022-10-18T10:30:32;97705.37;;;18.83;62.76
24302;BME280;12421;49.732;20.078;2022-10-18T10:40:47;97686.39;;;19.09;61.93
24302;BME280;12421;49.732;20.078;2022-10-18T10:50:59;97672.20;;;19.29;60.95
24302;BME280;12421;49.732;20.078;2022-10-18T11:01:22;97651.39;;;19.55;59.54
24302;BME280;12421;49.732;20.078;2022-10-18T11:11:30;97629.41;;;19.77;57.16
24302;BME280;12421;49.732;20.078;2022-10-18T11:21:38;97616.39;;;20.01;54.99
24302;BME280;12421;49.732;20.078;2022-10-18T12:04:33;97566.63;;;20.70;50.10
24302;BME280;12421;49.732;20.078;2022-10-18T12:14:09;97554.41;;;20.72;50.10
24302;BME280;12421;49.732;20.078;2022-10-18T12:24:20;97540.90;;;20.79;49.52
24302;BME280;12421;49.732;20.078;2022-10-18T12:34:30;97527.61;;;20.89;48.59
24302;BME280;12421;49.732;20.078;2022-10-18T12:44:35;97523.98;;;20.96;48.40
24302;BME280;12421;49.732;20.078;2022-10-18T12:54:39;97518.36;;;20.93;47.85
24302;BME280;12421;49.732;20.078;2022-10-18T13:04:43;97508.64;;;20.91;47.84
24302;BME280;12421;49.732;20.078;2022-10-18T13:14:58;97495.30;;;20.85;47.82
24302;BME280;12421;49.732;20.078;2022-10-18T13:35:45;97479.31;;;20.62;47.58
24302;BME280;12421;49.732;20.078;2022-10-18T13:45:54;97475.08;;;20.44;47.37
24302;BME280;12421;49.732;20.078;2022-10-18T13:56:03;97471.01;;;20.31;46.17
24302;BME280;12421;49.732;20.078;2022-10-18T14:06:20;97460.55;;;20.20;47.09
24302;BME280;12421;49.732;20.078;2022-10-18T14:16:37;97446.52;;;19.96;47.82
24302;BME280;12421;49.732;20.078;2022-10-18T14:26:43;97424.38;;;19.62;48.37
24302;BME280;12421;49.732;20.078;2022-10-18T14:36:48;97412.45;;;19.19;48.62
24302;BME280;12421;49.732;20.078;2022-10-18T14:47:02;97397.98;;;18.86;48.45
24302;BME280;12421;49.732;20.078;2022-10-18T14:57:27;97390.58;;;18.49;49.39
24302;BME280;12421;49.732;20.078;2022-10-18T15:07:33;97382.08;;;18.01;51.59
24302;BME280;12421;49.732;20.078;2022-10-18T15:17:39;97386.05;;;17.38;53.81
24302;BME280;12421;49.732;20.078;2022-10-18T15:27:56;97384.79;;;16.65;55.81
24302;BME280;12421;49.732;20.078;2022-10-18T15:48:34;97392.20;;;15.21;59.62
24302;BME280;12421;49.732;20.078;2022-10-18T15:58:43;97399.48;;;14.50;61.42
24302;BME280;12421;49.732;20.078;2022-10-18T16:08:50;97408.16;;;13.97;62.98
24302;BME280;12421;49.732;20.078;2022-10-18T16:18:55;97407.13;;;13.52;63.74
24302;BME280;12421;49.732;20.078;2022-10-18T16:28:59;97412.66;;;13.08;64.65
24302;BME280;12421;49.732;20.078;2022-10-18T16:39:06;97424.30;;;12.61;65.80
24302;BME280;12421;49.732;20.078;2022-10-18T16:49:19;97424.94;;;12.18;66.87
24302;BME280;12421;49.732;20.078;2022-10-18T16:59:27;97423.28;;;11.85;67.80
24302;BME280;12421;49.732;20.078;2022-10-18T17:09:32;97423.84;;;11.52;68.70
24302;BME280;12421;49.732;20.078;2022-10-18T17:19:38;97426.46;;;11.26;69.42
24302;BME280;12421;49.732;20.078;2022-10-18T17:29:42;97425.85;;;11.08;70.05
24302;BME280;12421;49.732;20.078;2022-10-18T17:39:47;97433.69;;;10.83;70.53
24302;BME280;12421;49.732;20.078;2022-10-18T17:49:52;97426.59;;;10.54;71.20
24302;BME280;12421;49.732;20.078;2022-10-18T17:59:57;97431.75;;;10.25;72.12
24302;BME280;12421;49.732;20.078;2022-10-18T18:10:04;97438.78;;;10.05;72.74
24302;BME280;12421;49.732;20.078;2022-10-18T18:20:10;97438.05;;;9.83;73.28
24302;BME280;12421;49.732;20.078;2022-10-18T18:30:16;97445.77;;;9.70;73.99
24302;BME280;12421;49.732;20.078;2022-10-18T18:40:21;97447.35;;;9.63;74.48
24302;BME280;12421;49.732;20.078;2022-10-18T18:50:27;97445.77;;;9.67;74.66
24302;BME280;12421;49.732;20.078;2022-10-18T19:00:39;97442.95;;;9.62;75.14
24302;BME280;12421;49.732;20.078;2022-10-18T19:10:47;97447.71;;;9.69;75.33
24302;BME280;12421;49.732;20.078;2022-10-18T19:20:53;97439.98;;;9.78;75.75
24302;BME280;12421;49.732;20.078;2022-10-18T19:30:58;97448.77;;;9.90;76.30
24302;BME280;12421;49.732;20.078;2022-10-18T19:41:03;97456.85;;;10.15;76.82
24302;BME280;12421;49.732;20.078;2022-10-18T19:51:10;97462.25;;;10.45;76.61
24302;BME280;12421;49.732;20.078;2022-10-18T20:01:26;97454.11;;;10.72;76.84
24302;BME280;12421;49.732;20.078;2022-10-18T20:11:31;97451.92;;;10.95;76.63
24302;BME280;12421;49.732;20.078;2022-10-18T20:21:35;97453.05;;;11.15;76.59
24302;BME280;12421;49.732;20.078;2022-10-18T20:31:39;97460.38;;;11.30;77.06
24302;BME280;12421;49.732;20.078;2022-10-18T20:41:43;97462.29;;;11.64;78.22
24302;BME280;12421;49.732;20.078;2022-10-18T20:51:47;97469.64;;;12.36;78.77
24302;BME280;12421;49.732;20.078;2022-10-18T21:01:51;97474.63;;;13.00;80.01
24302;BME280;12421;49.732;20.078;2022-10-18T21:11:55;97465.73;;;13.48;80.56
24302;BME280;12421;49.732;20.078;2022-10-18T21:21:59;97477.15;;;13.88;80.13
24302;BME280;12421;49.732;20.078;2022-10-18T21:32:06;97496.16;;;14.16;81.19
24302;BME280;12421;49.732;20.078;2022-10-18T21:42:10;97500.51;;;14.32;82.27
24302;BME280;12421;49.732;20.078;2022-10-18T21:52:16;97498.28;;;14.38;83.35
24302;BME280;12421;49.732;20.078;2022-10-18T22:02:20;97498.90;;;14.44;84.14
24302;BME280;12421;49.732;20.078;2022-10-18T22:12:25;97513.37;;;14.45;83.76
24302;BME280;12421;49.732;20.078;2022-10-18T22:22:29;97518.05;;;14.17;83.07
24302;BME280;12421;49.732;20.078;2022-10-18T22:32:33;97517.94;;;13.88;83.73
24302;BME280;12421;49.732;20.078;2022-10-18T22:42:36;97517.72;;;13.66;82.97
24302;BME280;12421;49.732;20.078;2022-10-18T22:52:40;97527.11;;;13.49;82.92
24302;BME280;12421;49.732;20.078;2022-10-18T23:02:43;97520.61;;;13.47;83.74
24302;BME280;12421;49.732;20.078;2022-10-18T23:12:47;97524.40;;;13.40;84.02
24302;BME280;12421;49.732;20.078;2022-10-18T23:22:51;97521.02;;;13.28;84.03
24302;BME280;12421;49.732;20.078;2022-10-18T23:32:54;97517.11;;;13.17;84.48
24302;BME280;12421;49.732;20.078;2022-10-18T23:42:58;97529.00;;;13.11;84.47
24302;BME280;12421;49.732;20.078;2022-10-18T23:53:02;97537.81;;;13.10;83.85
